Time;durP1;ratioP1;P1;durP2;ratioP2;P2;SDS_P1;SDS_P2;PMS_P1;PMS_P2;Temp;Humidity;BMP_temperature;BMP_pressure;BME280_temperature;BME280_humidity;BME280_pressure;Samples;Min_cycle;Max_cycle;Signal;HPM_P1;HPM_P2
2021/04/03 00:00:14;;;;;;;;;;;11.90;58.10;;;;;;4335765;33;20009;-79
2021/04/03 00:02:46;;;;;;;;;;;11.90;58.20;;;;;;4322806;33;20040;-79
2021/04/03 00:05:19;;;;;;;;;;;11.90;58.30;;;;;;4349142;33;20040;-79
2021/04/03 00:07:53;;;;;;;;;;;11.90;58.40;;;;;;4335894;33;20070;-79
2021/04/03 00:10:31;;;;;;;;;;;11.80;58.50;;;;;;4335639;33;20017;-79
2021/04/03 00:13:01;;;;;;;;;;;11.80;58.60;;;;;;4334941;33;32080;-79
2021/04/03 00:15:33;;;;;;;;;;;11.80;58.70;;;;;;4348975;33;20104;-79
2021/04/03 00:18:09;;;;;;;;;;;11.80;58.80;;;;;;4323661;33;20016;-79
2021/04/03 00:20:46;;;;;;;;;;;11.80;58.70;;;;;;4322305;33;39710;-79
2021/04/03 00:23:24;;;;;;;;;;;11.80;58.80;;;;;;4335059;33;20328;-79
2021/04/03 00:25:59;;;;;;;;;;;11.80;58.90;;;;;;4335442;33;20025;-79
2021/04/03 00:28:35;;;;;;;;;;;11.80;58.90;;;;;;4347768;33;39668;-79
2021/04/03 00:31:09;;;;;;;;;;;11.80;58.90;;;;;;4348587;33;20042;-79
2021/04/03 00:33:42;;;;;;;;;;;11.70;59.00;;;;;;4347664;33;44538;-79
2021/04/03 00:36:23;;;;;;;;;;;11.70;59.00;;;;;;4348540;33;20017;-79
2021/04/03 00:38:55;;;;;;;;;;;11.80;59.10;;;;;;4334407;33;19997;-79
2021/04/03 00:41:32;;;;;;;;;;;11.70;59.10;;;;;;4336078;33;20060;-79
2021/04/03 00:44:08;;;;;;;;;;;11.70;59.10;;;;;;4347318;33;43652;-79
2021/04/03 00:46:43;;;;;;;;;;;11.70;59.10;;;;;;4333777;33;36636;-79
2021/04/03 00:49:12;;;;;;;;;;;11.70;59.20;;;;;;4334054;33;42073;-79
2021/04/03 00:51:51;;;;;;;;;;;11.70;59.20;;;;;;4323116;33;19997;-79
2021/04/03 00:54:23;;;;;;;;;;;11.70;59.30;;;;;;4334417;33;35009;-79
2021/04/03 00:56:52;;;;;;;;;;;11.60;59.80;;;;;;4334299;33;21762;-79
2021/04/03 00:59:25;;;;;;;;;;;11.60;59.30;;;;;;4334874;33;20025;-79
2021/04/03 01:01:58;;;;;;;;;;;11.60;59.30;;;;;;4334048;33;38586;-79
2021/04/03 01:04:30;;;;;;;;;;;11.60;59.50;;;;;;4348143;33;20023;-79
2021/04/03 01:07:10;;;;;;;;;;;11.60;59.50;;;;;;4335190;33;20136;-79
2021/04/03 01:09:49;;;;;;;;;;;11.60;59.50;;;;;;4347032;33;34464;-79
2021/04/03 01:12:21;;;;;;;;;;;11.60;59.70;;;;;;4334395;33;20025;-79
2021/04/03 01:15:07;;;;;;;;;;;11.60;59.80;;;;;;4335306;33;20019;-79
2021/04/03 01:17:49;;;;;;;;;;;11.50;59.90;;;;;;4346879;33;40973;-79
2021/04/03 01:20:28;;;;;;;;;;;11.50;60.00;;;;;;4334552;33;20116;-79
2021/04/03 01:23:06;;;;;;;;;;;11.50;60.10;;;;;;4347940;33;20065;-79
2021/04/03 01:25:56;;;;;;;;;;;11.50;60.20;;;;;;4347840;33;20047;-79
2021/04/03 01:28:28;;;;;;;;;;;11.40;60.30;;;;;;4334836;33;20005;-79
2021/04/03 01:31:06;;;;;;;;;;;11.40;60.40;;;;;;4322098;33;20001;-79
2021/04/03 01:33:43;;;;;;;;;;;11.40;60.60;;;;;;4322180;33;20051;-79
2021/04/03 01:36:18;;;;;;;;;;;11.40;60.70;;;;;;4334544;33;20027;-79
2021/04/03 01:38:54;;;;;;;;;;;11.40;60.70;;;;;;4334359;33;20011;-79
2021/04/03 01:41:28;;;;;;;;;;;11.40;60.80;;;;;;4333919;33;20432;-79
2021/04/03 01:44:06;;;;;;;;;;;11.40;61.00;;;;;;4347953;33;20080;-79
2021/04/03 01:46:36;;;;;;;;;;;11.40;61.20;;;;;;4320589;33;46186;-79
2021/04/03 01:49:13;;;;;;;;;;;11.40;61.10;;;;;;4345887;33;39588;-79
2021/04/03 01:51:50;;;;;;;;;;;11.40;61.40;;;;;;4334278;33;19997;-79
2021/04/03 01:54:23;;;;;;;;;;;11.40;61.40;;;;;;4333935;33;20110;-79
2021/04/03 01:56:57;;;;;;;;;;;11.40;61.70;;;;;;4346407;33;45196;-79
2021/04/03 01:59:32;;;;;;;;;;;11.30;61.60;;;;;;4333901;33;20053;-79
2021/04/03 02:02:04;;;;;;;;;;;11.30;61.80;;;;;;4347043;33;20023;-79
2021/04/03 02:04:38;;;;;;;;;;;11.30;62.10;;;;;;4347293;33;20010;-79
2021/04/03 02:07:16;;;;;;;;;;;11.30;62.30;;;;;;4347433;33;20016;-79
2021/04/03 02:09:55;;;;;;;;;;;11.30;62.30;;;;;;4334284;33;20029;-79
2021/04/03 02:12:30;;;;;;;;;;;11.20;62.40;;;;;;4333202;33;34132;-79
2021/04/03 02:15:03;;;;;;;;;;;11.20;63.20;;;;;;4320603;33;38300;-79
2021/04/03 02:17:36;;;;;;;;;;;11.20;62.60;;;;;;4347461;33;20006;-79
2021/04/03 02:20:23;;;;;;;;;;;11.20;62.60;;;;;;4332583;33;43390;-79
2021/04/03 02:22:51;;;;;;;;;;;11.20;62.70;;;;;;4332711;33;44005;-79
2021/04/03 02:25:29;;;;;;;;;;;11.20;62.70;;;;;;4332722;33;38104;-79
2021/04/03 02:28:01;;;;;;;;;;;11.20;62.70;;;;;;4346486;33;27792;-79
2021/04/03 02:30:39;;;;;;;;;;;11.10;63.50;;;;;;4332517;33;43635;-79
2021/04/03 02:33:12;;;;;;;;;;;11.20;62.90;;;;;;4332751;33;37847;-78
2021/04/03 02:35:48;;;;;;;;;;;11.10;63.00;;;;;;4345793;33;43962;-79
2021/04/03 02:38:18;;;;;;;;;;;11.10;63.00;;;;;;4346163;33;28922;-79
2021/04/03 02:40:52;;;;;;;;;;;11.10;63.90;;;;;;4333948;33;20064;-79
2021/04/03 02:43:48;;;;;;;;;;;11.10;63.10;;;;;;4332546;33;37096;-79
2021/04/03 02:46:24;;;;;;;;;;;11.10;63.30;;;;;;4320176;33;44248;-79
2021/04/03 02:49:01;;;;;;;;;;;11.10;63.50;;;;;;4333888;33;20052;-79
2021/04/03 02:51:39;;;;;;;;;;;11.10;63.40;;;;;;4321293;33;20017;-79
2021/04/03 02:54:16;;;;;;;;;;;11.10;63.40;;;;;;4321412;33;20122;-79
2021/04/03 02:56:51;;;;;;;;;;;11.10;63.50;;;;;;4321288;33;20047;-78
2021/04/03 02:59:26;;;;;;;;;;;11.00;63.60;;;;;;4333436;33;20011;-79
2021/04/03 03:02:01;;;;;;;;;;;11.00;63.60;;;;;;4346088;33;20023;-79
2021/04/03 03:04:40;;;;;;;;;;;11.00;63.60;;;;;;4333424;33;20019;-78
2021/04/03 03:07:11;;;;;;;;;;;11.00;63.80;;;;;;4333540;33;20009;-79
2021/04/03 03:09:48;;;;;;;;;;;11.00;63.80;;;;;;4331615;33;43573;-78
2021/04/03 03:12:21;;;;;;;;;;;11.00;63.80;;;;;;4332624;33;30723;-78
2021/04/03 03:14:56;;;;;;;;;;;11.00;63.80;;;;;;4321082;33;20015;-78
2021/04/03 03:17:26;;;;;;;;;;;10.90;63.80;;;;;;4332584;33;27808;-78
2021/04/03 03:20:06;;;;;;;;;;;11.00;64.10;;;;;;4332967;33;20056;-78
2021/04/03 03:22:39;;;;;;;;;;;10.90;63.90;;;;;;4332648;33;31755;-79
2021/04/03 03:25:14;;;;;;;;;;;10.90;63.80;;;;;;4332436;33;35188;-79
2021/04/03 03:27:54;;;;;;;;;;;10.90;64.00;;;;;;4333731;33;20414;-79
2021/04/03 03:30:29;;;;;;;;;;;10.90;64.00;;;;;;4331816;33;43352;-79
2021/04/03 03:33:05;;;;;;;;;;;10.90;64.10;;;;;;4320030;33;32942;-79
2021/04/03 03:35:37;;;;;;;;;;;10.90;64.00;;;;;;4333364;33;20387;-78
2021/04/03 03:38:13;;;;;;;;;;;10.90;64.00;;;;;;4320933;33;20010;-78
2021/04/03 03:40:46;;;;;;;;;;;10.80;64.00;;;;;;4333009;33;20009;-78
2021/04/03 03:43:16;;;;;;;;;;;10.80;64.00;;;;;;4345698;33;38642;-78
2021/04/03 03:45:52;;;;;;;;;;;10.80;63.90;;;;;;4320742;33;20015;-78
2021/04/03 03:48:27;;;;;;;;;;;10.80;63.90;;;;;;4346506;33;20019;-79
2021/04/03 03:51:02;;;;;;;;;;;10.80;64.00;;;;;;4345243;33;30557;-78
2021/04/03 03:53:31;;;;;;;;;;;10.80;63.90;;;;;;4331956;33;44684;-78
2021/04/03 03:56:10;;;;;;;;;;;10.80;63.80;;;;;;4345323;33;38761;-78
2021/04/03 03:58:42;;;;;;;;;;;10.80;63.80;;;;;;4331859;33;44852;-79
2021/04/03 04:01:20;;;;;;;;;;;10.80;63.70;;;;;;4320679;33;20032;-78
2021/04/03 04:03:55;;;;;;;;;;;10.80;63.70;;;;;;4345223;33;42106;-79
2021/04/03 04:06:25;;;;;;;;;;;10.70;63.20;;;;;;4319095;33;44382;-78
2021/04/03 04:08:59;;;;;;;;;;;10.80;63.10;;;;;;4331413;33;40878;-79
2021/04/03 04:11:35;;;;;;;;;;;10.70;63.00;;;;;;4332816;33;20060;-78
2021/04/03 04:14:21;;;;;;;;;;;10.70;62.80;;;;;;4334440;33;42497;-78
2021/04/03 04:16:57;;;;;;;;;;;10.70;62.70;;;;;;4322273;33;41749;-78
2021/04/03 04:19:32;;;;;;;;;;;10.70;62.60;;;;;;4347917;33;37831;-78
2021/04/03 04:22:05;;;;;;;;;;;10.70;62.60;;;;;;4334209;33;43672;-78
2021/04/03 04:24:40;;;;;;;;;;;10.70;62.50;;;;;;4333835;33;46862;-78
2021/04/03 04:27:18;;;;;;;;;;;10.70;62.40;;;;;;4347730;33;34763;-78
2021/04/03 04:29:54;;;;;;;;;;;10.70;62.50;;;;;;4347675;33;39217;-78
2021/04/03 04:32:39;;;;;;;;;;;10.60;62.50;;;;;;4335658;33;20057;-78
2021/04/03 04:35:15;;;;;;;;;;;10.60;62.50;;;;;;4335419;33;20004;-78
2021/04/03 04:37:47;;;;;;;;;;;10.60;62.60;;;;;;4334031;33;41638;-78
2021/04/03 04:40:20;;;;;;;;;;;10.60;62.70;;;;;;4348722;33;20011;-78
2021/04/03 04:42:54;;;;;;;;;;;10.60;62.60;;;;;;4334598;33;33394;-79
2021/04/03 04:45:29;;;;;;;;;;;10.60;62.80;;;;;;4335450;33;20029;-78
2021/04/03 04:48:05;;;;;;;;;;;10.60;62.80;;;;;;4322983;33;19993;-78
2021/04/03 04:50:39;;;;;;;;;;;10.60;62.90;;;;;;4348564;33;20056;-78
2021/04/03 04:53:15;;;;;;;;;;;10.50;62.70;;;;;;4321926;33;32362;-78
2021/04/03 04:55:48;;;;;;;;;;;10.50;62.80;;;;;;4333656;33;43917;-78
2021/04/03 04:58:20;;;;;;;;;;;10.60;62.90;;;;;;4335293;33;20007;-79
2021/04/03 05:00:55;;;;;;;;;;;10.50;62.90;;;;;;4348483;33;20056;-78
2021/04/03 05:03:30;;;;;;;;;;;10.50;62.90;;;;;;4334267;33;20065;-78
2021/04/03 05:06:02;;;;;;;;;;;10.50;62.80;;;;;;4322523;33;20625;-78
2021/04/03 05:08:35;;;;;;;;;;;10.50;62.90;;;;;;4335050;33;20013;-78
2021/04/03 05:11:04;;;;;;;;;;;10.50;62.90;;;;;;4334812;33;20027;-78
2021/04/03 05:13:39;;;;;;;;;;;10.50;62.90;;;;;;4334832;33;20012;-78
2021/04/03 05:16:12;;;;;;;;;;;10.50;62.80;;;;;;4322720;33;20016;-79
2021/04/03 05:18:47;;;;;;;;;;;10.50;62.90;;;;;;4334895;33;20843;-78
2021/04/03 05:21:20;;;;;;;;;;;10.40;62.90;;;;;;4333910;33;20012;-78
2021/04/03 05:23:52;;;;;;;;;;;10.50;62.90;;;;;;4347587;33;20001;-78
2021/04/03 05:26:27;;;;;;;;;;;10.40;62.70;;;;;;4346899;33;44947;-78
2021/04/03 05:28:59;;;;;;;;;;;10.40;62.80;;;;;;4346726;33;43295;-78
2021/04/03 05:31:39;;;;;;;;;;;10.40;62.90;;;;;;4322409;33;20444;-78
2021/04/03 05:34:11;;;;;;;;;;;10.40;62.90;;;;;;4333697;33;39602;-78
2021/04/03 05:36:47;;;;;;;;;;;10.40;62.90;;;;;;4334628;33;20020;-78
2021/04/03 05:39:20;;;;;;;;;;;10.40;62.90;;;;;;4333590;33;37718;-78
2021/04/03 05:41:53;;;;;;;;;;;10.40;63.10;;;;;;4333729;33;24449;-78
2021/04/03 05:44:23;;;;;;;;;;;10.40;63.20;;;;;;4346947;33;26822;-78
2021/04/03 05:46:56;;;;;;;;;;;10.40;63.20;;;;;;4347534;33;20014;-78
2021/04/03 05:49:37;;;;;;;;;;;10.30;63.20;;;;;;4334600;33;20005;-78
2021/04/03 05:52:09;;;;;;;;;;;10.30;63.10;;;;;;4333197;33;44821;-78
2021/04/03 05:54:44;;;;;;;;;;;10.30;63.20;;;;;;4334666;33;20009;-78
2021/04/03 05:57:16;;;;;;;;;;;10.30;63.40;;;;;;4347723;33;20020;-79
2021/04/03 05:59:52;;;;;;;;;;;10.30;63.50;;;;;;4347416;33;20014;-78
2021/04/03 06:02:24;;;;;;;;;;;10.20;63.50;;;;;;4346913;33;20019;-78
2021/04/03 06:05:03;;;;;;;;;;;10.30;63.70;;;;;;4333955;33;20343;-78
2021/04/03 06:07:40;;;;;;;;;;;10.30;63.60;;;;;;4332699;33;45699;-79
2021/04/03 06:10:10;;;;;;;;;;;10.20;63.50;;;;;;4320744;33;43708;-78
2021/04/03 06:12:47;;;;;;;;;;;10.20;63.50;;;;;;4333995;33;20393;-78
2021/04/03 06:15:35;;;;;;;;;;;10.20;63.60;;;;;;4321973;33;20410;-78
2021/04/03 06:18:13;;;;;;;;;;;10.20;63.70;;;;;;4333641;33;20017;-78
2021/04/03 06:20:51;;;;;;;;;;;10.20;63.90;;;;;;4321782;33;20001;-78
2021/04/03 06:23:30;;;;;;;;;;;10.20;64.00;;;;;;4333100;33;41505;-78
2021/04/03 06:26:05;;;;;;;;;;;10.20;64.00;;;;;;4347408;33;20001;-78
2021/04/03 06:28:39;;;;;;;;;;;10.20;64.00;;;;;;4321473;33;19998;-78
2021/04/03 06:31:13;;;;;;;;;;;10.20;64.10;;;;;;4346089;33;38355;-78
2021/04/03 06:33:51;;;;;;;;;;;10.20;64.10;;;;;;4333303;33;20003;-78
2021/04/03 06:36:29;;;;;;;;;;;10.20;64.10;;;;;;4321223;33;20009;-78
2021/04/03 06:39:07;;;;;;;;;;;10.20;64.10;;;;;;4332748;33;41070;-78
2021/04/03 06:41:42;;;;;;;;;;;10.10;64.10;;;;;;4346203;33;31370;-78
2021/04/03 06:44:15;;;;;;;;;;;10.10;64.10;;;;;;4346086;33;28570;-78
2021/04/03 06:46:50;;;;;;;;;;;10.10;64.10;;;;;;4333375;33;20008;-78
2021/04/03 06:49:25;;;;;;;;;;;10.10;64.10;;;;;;4332799;33;44276;-77
2021/04/03 06:51:57;;;;;;;;;;;10.10;64.10;;;;;;4345965;33;33239;-78
2021/04/03 06:54:30;;;;;;;;;;;10.10;64.20;;;;;;4319694;33;45709;-78
2021/04/03 06:57:00;;;;;;;;;;;10.20;64.40;;;;;;4333873;33;20012;-78
2021/04/03 06:59:38;;;;;;;;;;;10.10;64.40;;;;;;4346073;33;33924;-78
2021/04/03 07:02:16;;;;;;;;;;;10.10;64.30;;;;;;4333370;33;20013;-78
2021/04/03 07:04:51;;;;;;;;;;;10.10;64.40;;;;;;4319918;33;44767;-78
2021/04/03 07:07:28;;;;;;;;;;;10.10;64.50;;;;;;4332178;33;44732;-78
2021/04/03 07:10:01;;;;;;;;;;;10.10;64.30;;;;;;4332553;33;41975;-78
2021/04/03 07:12:34;;;;;;;;;;;10.10;64.20;;;;;;4333469;33;20124;-78
2021/04/03 07:15:22;;;;;;;;;;;10.10;65.10;;;;;;4346489;33;20362;-78
2021/04/03 07:17:49;;;;;;;;;;;10.10;64.30;;;;;;4345797;33;44362;-78
2021/04/03 07:20:27;;;;;;;;;;;10.10;64.20;;;;;;4332426;33;44638;-77
2021/04/03 07:23:01;;;;;;;;;;;10.10;64.20;;;;;;4332230;33;34100;-78
2021/04/03 07:25:40;;;;;;;;;;;10.10;64.10;;;;;;4321216;33;20057;-78
2021/04/03 07:28:18;;;;;;;;;;;10.10;64.10;;;;;;4321387;33;20001;-78
2021/04/03 07:30:59;;;;;;;;;;;10.10;64.00;;;;;;4320153;33;39809;-78
2021/04/03 07:33:28;;;;;;;;;;;10.10;64.10;;;;;;4319925;33;38803;-78
2021/04/03 07:36:08;;;;;;;;;;;10.10;64.10;;;;;;4332190;33;32607;-78
2021/04/03 07:38:43;;;;;;;;;;;10.10;64.00;;;;;;4333257;33;20383;-79
2021/04/03 07:41:21;;;;;;;;;;;10.10;64.10;;;;;;4346216;33;20060;-78
2021/04/03 07:43:58;;;;;;;;;;;10.10;64.00;;;;;;4332230;33;36871;-78
2021/04/03 07:46:37;;;;;;;;;;;10.10;63.90;;;;;;4345470;33;39150;-78
2021/04/03 07:49:11;;;;;;;;;;;10.10;64.00;;;;;;4335768;33;20485;-78
2021/04/03 07:51:44;;;;;;;;;;;10.10;64.10;;;;;;4322968;33;31438;-78
2021/04/03 07:54:32;;;;;;;;;;;10.10;64.10;;;;;;4336118;33;20021;-78
2021/04/03 07:57:08;;;;;;;;;;;10.10;64.20;;;;;;4348187;33;39656;-78
2021/04/03 07:59:47;;;;;;;;;;;10.10;64.90;;;;;;4336064;33;20092;-78
2021/04/03 08:02:18;;;;;;;;;;;10.10;65.10;;;;;;4334365;33;41838;-78
2021/04/03 08:04:56;;;;;;;;;;;10.10;64.50;;;;;;4322368;33;42883;-78
2021/04/03 08:07:26;;;;;;;;;;;10.10;64.50;;;;;;4336003;33;20019;-78
2021/04/03 08:10:04;;;;;;;;;;;10.10;64.60;;;;;;4336320;33;20353;-78
2021/04/03 08:12:45;;;;;;;;;;;10.10;64.40;;;;;;4336547;33;20019;-78
2021/04/03 08:15:21;;;;;;;;;;;10.10;64.50;;;;;;4335305;33;20418;-79
2021/04/03 08:17:56;;;;;;;;;;;10.20;64.60;;;;;;4349033;33;20072;-78
2021/04/03 08:20:23;;;;;;;;;;;10.20;64.60;;;;;;4334127;33;44891;-78
2021/04/03 08:22:59;;;;;;;;;;;10.20;64.60;;;;;;4347672;33;43022;-78
2021/04/03 08:25:31;;;;;;;;;;;10.20;64.60;;;;;;4335278;33;20007;-78
2021/04/03 08:28:21;;;;;;;;;;;10.20;64.60;;;;;;4323543;33;20048;-78
2021/04/03 08:30:50;;;;;;;;;;;10.20;64.60;;;;;;4320753;33;45387;-77
2021/04/03 08:33:24;;;;;;;;;;;10.20;64.30;;;;;;4334595;33;20418;-77
2021/04/03 08:35:57;;;;;;;;;;;10.20;64.20;;;;;;4347673;33;40660;-77
2021/04/03 08:38:29;;;;;;;;;;;10.20;64.40;;;;;;4322879;33;20405;-77
2021/04/03 08:41:03;;;;;;;;;;;10.20;64.40;;;;;;4335145;33;20019;-76
2021/04/03 08:43:41;;;;;;;;;;;10.20;64.40;;;;;;4321977;33;33572;-78
2021/04/03 08:46:14;;;;;;;;;;;10.20;64.40;;;;;;4333927;33;42848;-78
2021/04/03 08:49:10;;;;;;;;;;;10.30;64.40;;;;;;4335189;33;20025;-78
2021/04/03 08:51:43;;;;;;;;;;;10.30;64.40;;;;;;4333914;33;43455;-78
2021/04/03 08:54:15;;;;;;;;;;;10.30;64.30;;;;;;4347198;33;38319;-78
2021/04/03 08:56:50;;;;;;;;;;;10.20;64.10;;;;;;4348677;33;20065;-78
2021/04/03 08:59:20;;;;;;;;;;;10.20;64.00;;;;;;4319735;33;46134;-78
2021/04/03 09:01:54;;;;;;;;;;;10.30;64.10;;;;;;4347899;33;20420;-78
2021/04/03 09:04:23;;;;;;;;;;;10.30;64.00;;;;;;4334095;33;42476;-77
2021/04/03 09:06:58;;;;;;;;;;;10.30;64.00;;;;;;4347152;33;43508;-80
2021/04/03 09:09:33;;;;;;;;;;;10.30;63.90;;;;;;4333694;33;42230;-77
2021/04/03 09:12:05;;;;;;;;;;;10.30;64.10;;;;;;4333227;33;37296;-77
2021/04/03 09:14:37;;;;;;;;;;;10.30;64.20;;;;;;4333328;33;33437;-78
2021/04/03 09:17:24;;;;;;;;;;;10.30;64.20;;;;;;4334377;33;20055;-77
2021/04/03 09:20:14;;;;;;;;;;;10.30;64.20;;;;;;4333746;33;32910;-82
2021/04/03 09:22:42;;;;;;;;;;;10.30;64.20;;;;;;4332465;33;44691;-81
2021/04/03 09:25:12;;;;;;;;;;;10.40;64.00;;;;;;4345831;33;40530;-82
2021/04/03 09:27:54;;;;;;;;;;;10.40;63.90;;;;;;4332970;33;43508;-79
2021/04/03 09:30:29;;;;;;;;;;;10.40;63.70;;;;;;4332745;33;43398;-79
2021/04/03 09:32:55;;;;;;;;;;;10.40;63.60;;;;;;4333013;33;44301;-78
2021/04/03 09:35:31;;;;;;;;;;;10.40;63.60;;;;;;4346763;33;39230;-79
2021/04/03 09:38:04;;;;;;;;;;;10.40;63.50;;;;;;4346852;33;39022;-78
2021/04/03 09:40:44;;;;;;;;;;;10.40;63.30;;;;;;4346591;33;44624;-78
2021/04/03 09:43:20;;;;;;;;;;;10.40;63.20;;;;;;4332919;33;20449;-78
2021/04/03 09:45:56;;;;;;;;;;;10.40;63.00;;;;;;4347811;33;20385;-78
2021/04/03 09:48:31;;;;;;;;;;;10.40;62.90;;;;;;4322105;33;20410;-78
2021/04/03 09:51:02;;;;;;;;;;;10.40;62.70;;;;;;4333370;33;41322;-79
2021/04/03 09:53:32;;;;;;;;;;;10.40;62.60;;;;;;4333159;33;43312;-78
2021/04/03 09:56:08;;;;;;;;;;;10.40;62.60;;;;;;4334528;33;20017;-78
2021/04/03 09:58:38;;;;;;;;;;;10.40;62.50;;;;;;4333241;33;38926;-78
2021/04/03 10:01:07;;;;;;;;;;;10.50;62.50;;;;;;4347244;33;20064;-79
2021/04/03 10:03:42;;;;;;;;;;;10.40;62.40;;;;;;4334603;33;20036;-79
2021/04/03 10:06:19;;;;;;;;;;;10.40;62.30;;;;;;4332841;33;41898;-79
2021/04/03 10:08:49;;;;;;;;;;;10.50;62.30;;;;;;4346215;33;44759;-79
2021/04/03 10:11:21;;;;;;;;;;;10.50;62.30;;;;;;4321849;33;20021;-79
2021/04/03 10:13:54;;;;;;;;;;;10.50;62.30;;;;;;4320870;33;34410;-79
2021/04/03 10:16:29;;;;;;;;;;;10.50;62.20;;;;;;4333683;33;20029;-79
2021/04/03 10:18:59;;;;;;;;;;;10.50;62.20;;;;;;4332777;33;43529;-79
2021/04/03 10:21:31;;;;;;;;;;;10.50;63.10;;;;;;4321745;33;20031;-79
2021/04/03 10:24:07;;;;;;;;;;;10.50;62.30;;;;;;4334177;33;20361;-79
2021/04/03 10:26:42;;;;;;;;;;;10.60;62.30;;;;;;4333489;33;20009;-79
2021/04/03 10:29:14;;;;;;;;;;;10.60;62.30;;;;;;4334045;33;20078;-79
2021/04/03 10:31:50;;;;;;;;;;;10.60;62.20;;;;;;4334027;33;20048;-79
2021/04/03 10:34:22;;;;;;;;;;;10.60;62.20;;;;;;4332712;33;27259;-79
2021/04/03 10:36:55;;;;;;;;;;;10.60;62.20;;;;;;4346068;33;40892;-80
2021/04/03 10:39:29;;;;;;;;;;;10.60;62.10;;;;;;4321526;33;20366;-79
2021/04/03 10:42:02;;;;;;;;;;;10.60;62.10;;;;;;4332458;33;43380;-79
2021/04/03 10:44:34;;;;;;;;;;;10.70;62.20;;;;;;4333187;33;20079;-79
2021/04/03 10:47:07;;;;;;;;;;;10.70;62.40;;;;;;4345554;33;42810;-79
2021/04/03 10:49:42;;;;;;;;;;;10.70;62.50;;;;;;4346736;33;20064;-79
2021/04/03 10:52:17;;;;;;;;;;;10.70;62.50;;;;;;4346787;33;20073;-79
2021/04/03 10:54:49;;;;;;;;;;;10.70;62.40;;;;;;4333812;33;20013;-79
2021/04/03 10:57:28;;;;;;;;;;;10.80;62.40;;;;;;4333483;33;20005;-79
2021/04/03 11:00:00;;;;;;;;;;;10.80;62.50;;;;;;4333516;33;20017;-79
2021/04/03 11:02:33;;;;;;;;;;;10.80;62.50;;;;;;4321169;33;20378;-79
2021/04/03 11:05:10;;;;;;;;;;;10.80;62.50;;;;;;4333557;33;20033;-79
2021/04/03 11:07:37;;;;;;;;;;;10.80;62.60;;;;;;4345822;33;29037;-79
2021/04/03 11:10:12;;;;;;;;;;;10.80;62.60;;;;;;4346361;33;20057;-79
2021/04/03 11:12:42;;;;;;;;;;;10.90;62.60;;;;;;4346012;33;27379;-79
2021/04/03 11:15:14;;;;;;;;;;;10.90;62.50;;;;;;4332419;33;20090;-79
2021/04/03 11:17:46;;;;;;;;;;;10.90;62.50;;;;;;4321299;33;19998;-79
2021/04/03 11:20:19;;;;;;;;;;;10.90;62.50;;;;;;4333004;33;20013;-79
2021/04/03 11:22:48;;;;;;;;;;;10.90;62.50;;;;;;4346348;33;20399;-79
2021/04/03 11:25:23;;;;;;;;;;;11.00;62.40;;;;;;4320304;33;34286;-79
2021/04/03 11:27:55;;;;;;;;;;;11.00;62.40;;;;;;4346438;33;20354;-79
2021/04/03 11:30:27;;;;;;;;;;;11.00;62.20;;;;;;4346564;33;20028;-80
2021/04/03 11:33:03;;;;;;;;;;;11.00;62.20;;;;;;4332790;33;20407;-79
2021/04/03 11:35:36;;;;;;;;;;;11.00;62.20;;;;;;4332176;33;34801;-79
2021/04/03 11:38:08;;;;;;;;;;;11.10;62.20;;;;;;4345493;33;21309;-79
2021/04/03 11:40:37;;;;;;;;;;;11.10;62.20;;;;;;4345323;33;44179;-79
2021/04/03 11:43:07;;;;;;;;;;;11.10;62.30;;;;;;4319765;33;27314;-79
2021/04/03 11:45:37;;;;;;;;;;;11.20;62.30;;;;;;4332882;33;20001;-80
2021/04/03 11:48:14;;;;;;;;;;;11.20;62.20;;;;;;4333098;33;20003;-79
2021/04/03 11:50:43;;;;;;;;;;;11.20;62.00;;;;;;4320572;33;20005;-79
2021/04/03 11:53:20;;;;;;;;;;;11.20;61.80;;;;;;4346412;33;20005;-80
2021/04/03 11:55:53;;;;;;;;;;;11.20;61.70;;;;;;4346207;33;20065;-79
2021/04/03 11:58:23;;;;;;;;;;;11.30;61.70;;;;;;4333324;33;20362;-79
2021/04/03 12:00:58;;;;;;;;;;;11.30;61.60;;;;;;4332929;33;20027;-80
2021/04/03 12:03:37;;;;;;;;;;;11.30;61.80;;;;;;4346228;33;20072;-80
2021/04/03 12:06:03;;;;;;;;;;;11.30;61.70;;;;;;4331914;33;38395;-79
2021/04/03 12:08:39;;;;;;;;;;;11.30;61.60;;;;;;4332697;33;20050;-79
2021/04/03 12:11:11;;;;;;;;;;;11.30;61.60;;;;;;4346080;33;20065;-80
2021/04/03 12:13:49;;;;;;;;;;;11.40;61.60;;;;;;4319772;33;29264;-80
2021/04/03 12:16:21;;;;;;;;;;;11.40;62.10;;;;;;4331851;33;45105;-80
2021/04/03 12:18:56;;;;;;;;;;;11.40;62.20;;;;;;4345210;33;37832;-79
2021/04/03 12:21:28;;;;;;;;;;;11.40;61.40;;;;;;4331575;33;44084;-80
2021/04/03 12:24:01;;;;;;;;;;;11.40;61.70;;;;;;4332017;33;44736;-80
2021/04/03 12:26:33;;;;;;;;;;;11.40;61.50;;;;;;4346201;33;20050;-80
2021/04/03 12:29:06;;;;;;;;;;;11.50;61.50;;;;;;4344957;33;41976;-80
2021/04/03 12:31:36;;;;;;;;;;;11.50;61.50;;;;;;4344899;33;32183;-79
2021/04/03 12:34:11;;;;;;;;;;;11.50;61.40;;;;;;4346814;33;20019;-80
2021/04/03 12:36:41;;;;;;;;;;;11.50;61.30;;;;;;4323215;33;20005;-78
2021/04/03 12:39:16;;;;;;;;;;;11.60;61.40;;;;;;4348850;33;19997;-79
2021/04/03 12:41:49;;;;;;;;;;;11.60;61.20;;;;;;4346812;33;39326;-79
2021/04/03 12:44:24;;;;;;;;;;;11.50;60.90;;;;;;4334672;33;37721;-79
2021/04/03 12:46:51;;;;;;;;;;;11.60;61.00;;;;;;4347519;33;44837;-79
2021/04/03 12:49:17;;;;;;;;;;;11.60;61.10;;;;;;4347189;33;33056;-79
2021/04/03 12:51:44;;;;;;;;;;;11.60;61.20;;;;;;4333594;33;38878;-79
2021/04/03 12:54:11;;;;;;;;;;;11.70;61.30;;;;;;4334351;33;30343;-79
2021/04/03 12:56:37;;;;;;;;;;;11.70;61.20;;;;;;4347188;33;43684;-79
2021/04/03 12:59:06;;;;;;;;;;;11.70;61.20;;;;;;4334666;33;20057;-78
2021/04/03 13:01:32;;;;;;;;;;;11.70;61.10;;;;;;4333214;33;43964;-78
2021/04/03 13:03:59;;;;;;;;;;;11.70;61.20;;;;;;4347278;33;42532;-78
2021/04/03 13:06:26;;;;;;;;;;;11.80;61.40;;;;;;4347098;33;26154;-79
2021/04/03 13:08:52;;;;;;;;;;;11.80;61.20;;;;;;4321396;33;31213;-78
2021/04/03 13:11:24;;;;;;;;;;;11.80;61.00;;;;;;4347152;33;32798;-79
2021/04/03 13:13:51;;;;;;;;;;;11.90;60.90;;;;;;4321494;33;31755;-79
2021/04/03 13:16:24;;;;;;;;;;;11.90;61.70;;;;;;4333867;33;40090;-78
2021/04/03 13:18:50;;;;;;;;;;;11.90;60.80;;;;;;4334024;33;31850;-78
2021/04/03 13:21:18;;;;;;;;;;;11.90;60.60;;;;;;4331777;33;40445;-78
2021/04/03 13:23:52;;;;;;;;;;;12.00;60.50;;;;;;4345862;33;20032;-78
2021/04/03 13:26:19;;;;;;;;;;;12.00;60.20;;;;;;4333825;33;24636;-78
2021/04/03 13:28:53;;;;;;;;;;;12.00;60.30;;;;;;4346940;33;43518;-78
2021/04/03 13:31:20;;;;;;;;;;;12.00;60.50;;;;;;4347734;33;20015;-78
2021/04/03 13:33:50;;;;;;;;;;;12.00;61.30;;;;;;4346224;33;42435;-78
2021/04/03 13:36:25;;;;;;;;;;;12.00;60.50;;;;;;4333499;33;29680;-78
2021/04/03 13:38:59;;;;;;;;;;;12.10;60.40;;;;;;4334148;33;20415;-78
2021/04/03 13:41:32;;;;;;;;;;;12.10;60.20;;;;;;4332751;33;44680;-78
2021/04/03 13:44:02;;;;;;;;;;;12.10;60.10;;;;;;4333417;33;37315;-79
2021/04/03 13:46:36;;;;;;;;;;;12.20;60.00;;;;;;4347365;33;20410;-78
2021/04/03 13:49:07;;;;;;;;;;;12.20;59.90;;;;;;4347021;33;29812;-78
2021/04/03 13:51:41;;;;;;;;;;;12.20;59.80;;;;;;4347904;33;20049;-78
2021/04/03 13:54:16;;;;;;;;;;;12.20;59.50;;;;;;4346559;33;41016;-78
2021/04/03 13:56:54;;;;;;;;;;;12.20;59.40;;;;;;4334742;33;20036;-78
2021/04/03 13:59:27;;;;;;;;;;;12.30;59.30;;;;;;4347005;33;24583;-78
2021/04/03 14:01:56;;;;;;;;;;;12.30;59.20;;;;;;4332770;33;45189;-78
2021/04/03 14:04:32;;;;;;;;;;;12.30;59.40;;;;;;4347380;33;20092;-78
2021/04/03 14:07:07;;;;;;;;;;;12.30;59.80;;;;;;4320307;33;45291;-78
2021/04/03 14:09:39;;;;;;;;;;;12.30;59.20;;;;;;4346448;33;36912;-78
2021/04/03 14:12:17;;;;;;;;;;;12.40;59.20;;;;;;4334050;33;19998;-78
2021/04/03 14:14:43;;;;;;;;;;;12.40;59.30;;;;;;4332432;33;20430;-78
2021/04/03 14:17:10;;;;;;;;;;;12.40;59.30;;;;;;4320133;33;39188;-78
2021/04/03 14:19:48;;;;;;;;;;;12.40;59.30;;;;;;4347395;33;20019;-78
2021/04/03 14:22:19;;;;;;;;;;;12.50;59.20;;;;;;4342396;33;20134;-78
2021/04/03 14:24:46;;;;;;;;;;;12.50;59.30;;;;;;4346191;33;43705;-78
2021/04/03 14:27:12;;;;;;;;;;;12.60;59.30;;;;;;4332147;33;43684;-78
2021/04/03 14:29:44;;;;;;;;;;;12.60;59.20;;;;;;4345433;33;43379;-78
2021/04/03 14:32:13;;;;;;;;;;;12.60;59.20;;;;;;4345949;33;45057;-78
2021/04/03 14:34:41;;;;;;;;;;;12.70;59.30;;;;;;4320394;33;42192;-77
2021/04/03 14:37:09;;;;;;;;;;;12.70;59.30;;;;;;4320333;33;31282;-78
2021/04/03 14:39:36;;;;;;;;;;;12.70;59.20;;;;;;4332383;33;44047;-78
2021/04/03 14:42:03;;;;;;;;;;;12.80;59.10;;;;;;4345736;33;43680;-78
2021/04/03 14:44:30;;;;;;;;;;;12.80;58.80;;;;;;4332499;33;44060;-78
2021/04/03 14:46:58;;;;;;;;;;;12.80;58.60;;;;;;4345623;33;43964;-78
2021/04/03 14:49:38;;;;;;;;;;;12.80;58.60;;;;;;4333344;33;20035;-78
2021/04/03 14:52:08;;;;;;;;;;;12.80;59.00;;;;;;4345545;33;40739;-78
2021/04/03 14:54:36;;;;;;;;;;;12.80;58.10;;;;;;4320144;33;44058;-78